Nanao, Japan
Current Conditions -  °F | °C
As of 9:00 AM on Thursday 23 Oct 2014 (Local Time) from RJNT Reporting Station
Broken Clouds Broken Clouds  
Wind Chill: 59°   Ceiling: 5000
Heat Index: 59°   Visibility: 6mi
Dew Point: 46°   Wind: 2mph
Humidity: 63%   Direction: NA
Pressure: 30.06"   Gusts: NA
Location:  37.05°N, 136.96°E
Report Text: RJNT 230000Z VRB02KT 9999 FEW020 BKN050 BKN140 15/08 Q1018
Loading
Personal Weather Stations






























Interactive Weather Map
Tropical Storm Tracking
New forecast layout! Learn more

10-Day Weather Forecast

Advertisements
Track Severe Weather on mobile